Time;durP1;ratioP1;P1;durP2;ratioP2;P2;SDS_P1;SDS_P2;PMS_P1;PMS_P2;Temp;Humidity;BMP_temperature;BMP_pressure;BME280_temperature;BME280_humidity;BME280_pressure;Samples;Min_cycle;Max_cycle;Signal;HPM_P1;HPM_P2
2023/06/14 00:01:55;;;;;;;;;;;;;;;15.76;65.23;100428.04;108244;1255;60300;-81
2023/06/14 00:04:25;;;;;;;;;;;;;;;15.75;65.41;100429.46;108265;1254;74018;-81
2023/06/14 00:06:52;;;;;;;;;;;;;;;15.75;65.50;100422.52;108245;1254;71347;-80
2023/06/14 00:09:19;;;;;;;;;;;;;;;15.73;65.60;100420.60;108270;1253;71502;-80
2023/06/14 00:11:46;;;;;;;;;;;;;;;15.73;65.77;100417.38;108277;1254;62055;-81
2023/06/14 00:14:13;;;;;;;;;;;;;;;15.73;65.74;100421.03;108259;1253;60334;-81
2023/06/14 00:16:42;;;;;;;;;;;;;;;15.73;65.84;100424.77;108201;1254;73923;-81
2023/06/14 00:19:10;;;;;;;;;;;;;;;15.74;65.87;100423.24;108134;1254;72531;-80
2023/06/14 00:21:37;;;;;;;;;;;;;;;15.75;65.89;100422.77;108256;1254;72572;-81
2023/06/14 00:24:04;;;;;;;;;;;;;;;15.75;65.99;100423.09;108258;1253;61199;-81
2023/06/14 00:26:32;;;;;;;;;;;;;;;15.75;65.97;100419.70;108288;1254;60303;-81
2023/06/14 00:28:59;;;;;;;;;;;;;;;15.75;66.05;100418.85;108265;1256;72434;-81
2023/06/14 00:31:26;;;;;;;;;;;;;;;15.74;66.07;100420.11;108321;1254;72553;-80
2023/06/14 00:33:54;;;;;;;;;;;;;;;15.74;66.14;100419.19;108241;1254;72809;-80
2023/06/14 00:36:21;;;;;;;;;;;;;;;15.74;66.25;100415.09;108270;1253;62106;-81
2023/06/14 00:38:47;;;;;;;;;;;;;;;15.74;66.30;100413.87;108265;1254;60290;-80
2023/06/14 00:41:14;;;;;;;;;;;;;;;15.72;66.36;100410.77;108296;1254;72384;-80
2023/06/14 00:43:42;;;;;;;;;;;;;;;15.69;66.42;100409.67;108269;1253;71333;-80
2023/06/14 00:46:08;;;;;;;;;;;;;;;15.68;66.54;100406.45;108285;1254;71216;-80
2023/06/14 00:48:36;;;;;;;;;;;;;;;15.66;66.72;100407.20;108290;1254;60846;-80
2023/06/14 00:51:03;;;;;;;;;;;;;;;15.63;66.95;100414.37;108120;1254;59584;-80
2023/06/14 00:53:35;;;;;;;;;;;;;;;15.61;67.17;100420.77;108254;1254;73748;-81
2023/06/14 00:56:02;;;;;;;;;;;;;;;15.61;67.31;100423.40;108271;1254;72529;-81
2023/06/14 00:58:30;;;;;;;;;;;;;;;15.60;67.38;100421.96;108300;1254;72491;-81
2023/06/14 01:00:58;;;;;;;;;;;;;;;15.59;67.49;100419.55;108260;1254;61990;-80
2023/06/14 01:03:28;;;;;;;;;;;;;;;15.59;67.53;100424.88;108269;1256;60392;-80
2023/06/14 01:06:06;;;;;;;;;;;;;;;15.60;67.62;100429.23;108284;1254;73900;-80
2023/06/14 01:09:02;;;;;;;;;;;;;;;15.58;67.69;100424.95;108122;1254;72680;-80
2023/06/14 01:11:37;;;;;;;;;;;;;;;15.54;67.66;100420.34;108027;1254;72862;-80
2023/06/14 01:14:05;;;;;;;;;;;;;;;15.49;67.74;100422.08;108147;1254;61917;-80
2023/06/14 01:16:35;;;;;;;;;;;;;;;15.44;67.77;100418.07;108276;1254;60517;-80
2023/06/14 01:19:03;;;;;;;;;;;;;;;15.40;67.88;100417.58;108148;1255;74038;-80
2023/06/14 01:21:30;;;;;;;;;;;;;;;15.36;67.94;100412.15;108172;1255;72553;-80
2023/06/14 01:23:57;;;;;;;;;;;;;;;15.35;68.05;100415.01;108151;1256;72746;-80
2023/06/14 01:26:28;;;;;;;;;;;;;;;15.31;68.10;100417.98;108190;1253;61746;-80
2023/06/14 01:28:58;;;;;;;;;;;;;;;15.21;68.18;100419.15;108183;1253;60180;-80
2023/06/14 01:31:25;;;;;;;;;;;;;;;15.16;68.46;100416.37;108228;1255;73805;-80
2023/06/14 01:33:53;;;;;;;;;;;;;;;15.12;68.42;100416.54;108193;1257;72586;-80
2023/06/14 01:36:20;;;;;;;;;;;;;;;15.00;68.44;100413.09;108142;1254;72720;-80
2023/06/14 01:38:49;;;;;;;;;;;;;;;14.90;68.50;100410.92;108222;1254;61028;-80
2023/06/14 01:41:17;;;;;;;;;;;;;;;14.86;68.73;100409.30;108188;1254;60588;-80
2023/06/14 01:43:44;;;;;;;;;;;;;;;14.86;68.72;100409.14;108282;1254;74018;-80
2023/06/14 01:46:11;;;;;;;;;;;;;;;14.86;68.90;100408.27;108144;1253;71234;-81
2023/06/14 01:48:37;;;;;;;;;;;;;;;14.85;68.94;100404.48;108136;1254;72690;-81
2023/06/14 01:51:04;;;;;;;;;;;;;;;14.88;69.06;100403.48;108127;1259;60570;-80
2023/06/14 01:53:31;;;;;;;;;;;;;;;14.90;69.07;100400.32;108218;1254;60294;-80
2023/06/14 01:55:58;;;;;;;;;;;;;;;14.93;69.25;100396.52;108297;1254;72634;-80
2023/06/14 01:58:25;;;;;;;;;;;;;;;14.93;69.23;100397.65;108282;1254;70466;-80
2023/06/14 02:00:55;;;;;;;;;;;;;;;14.88;69.36;100390.98;108250;1256;72667;-80
2023/06/14 02:03:23;;;;;;;;;;;;;;;14.83;69.64;100392.09;108215;1258;60887;-80
2023/06/14 02:05:52;;;;;;;;;;;;;;;14.80;69.83;100395.02;108285;1254;59926;-80
2023/06/14 02:08:20;;;;;;;;;;;;;;;14.82;70.12;100400.34;108338;1255;73858;-81
2023/06/14 02:10:47;;;;;;;;;;;;;;;14.83;70.17;100401.70;108306;1254;72522;-80
2023/06/14 02:13:13;;;;;;;;;;;;;;;14.87;70.25;100403.65;108240;1252;72438;-82
2023/06/14 02:15:43;;;;;;;;;;;;;;;14.93;70.42;100402.70;108279;1254;62108;-80
2023/06/14 02:18:11;;;;;;;;;;;;;;;15.01;70.48;100408.30;108300;1254;60316;-81
2023/06/14 02:20:38;;;;;;;;;;;;;;;15.08;70.54;100406.02;108298;1254;73621;-80
2023/06/14 02:23:07;;;;;;;;;;;;;;;15.12;70.56;100405.89;108300;1254;72046;-80
2023/06/14 02:25:34;;;;;;;;;;;;;;;15.17;70.63;100406.57;108281;1254;71674;-80
2023/06/14 02:28:02;;;;;;;;;;;;;;;15.19;70.70;100397.91;108225;1253;61974;-81
2023/06/14 02:30:29;;;;;;;;;;;;;;;15.25;70.75;100397.18;108302;1253;60290;-82
2023/06/14 02:32:56;;;;;;;;;;;;;;;15.30;70.83;100399.05;108173;1254;73707;-80
2023/06/14 02:35:26;;;;;;;;;;;;;;;15.37;70.84;100397.34;108262;1256;72774;-80
2023/06/14 02:37:53;;;;;;;;;;;;;;;15.44;71.02;100396.85;108318;1254;72735;-81
2023/06/14 02:40:22;;;;;;;;;;;;;;;15.51;71.04;100400.24;108316;1256;60972;-83
2023/06/14 02:42:49;;;;;;;;;;;;;;;15.59;71.10;100405.02;108322;1254;60463;-83
2023/06/14 02:45:17;;;;;;;;;;;;;;;15.64;71.07;100411.40;108309;1254;72356;-81
2023/06/14 02:47:43;;;;;;;;;;;;;;;15.69;71.15;100409.30;108363;1254;71170;-81
2023/06/14 02:50:12;;;;;;;;;;;;;;;15.75;71.02;100411.04;108327;1256;71675;-80
2023/06/14 02:52:41;;;;;;;;;;;;;;;15.80;71.15;100412.99;108169;1254;61872;-80
2023/06/14 02:55:09;;;;;;;;;;;;;;;15.88;71.15;100418.08;108259;1254;60437;-80
2023/06/14 02:57:37;;;;;;;;;;;;;;;15.95;71.09;100419.73;108388;1254;73798;-80
2023/06/14 03:00:05;;;;;;;;;;;;;;;15.99;71.05;100418.77;108307;1254;72749;-80
2023/06/14 03:02:33;;;;;;;;;;;;;;;16.01;71.02;100416.77;108438;1256;72377;-82
2023/06/14 03:05:01;;;;;;;;;;;;;;;16.02;70.92;100422.52;108226;1254;61743;-81
2023/06/14 03:07:29;;;;;;;;;;;;;;;16.06;70.87;100425.31;108227;1253;60348;-81
2023/06/14 03:09:56;;;;;;;;;;;;;;;16.09;70.59;100424.61;108275;1254;73572;-82
2023/06/14 03:12:23;;;;;;;;;;;;;;;16.10;70.47;100426.59;108042;1259;72743;-81
2023/06/14 03:14:51;;;;;;;;;;;;;;;16.14;70.46;100429.70;108169;1259;71524;-81
2023/06/14 03:17:19;;;;;;;;;;;;;;;16.22;70.41;100432.67;108284;1253;62034;-81
2023/06/14 03:19:46;;;;;;;;;;;;;;;16.31;70.22;100436.82;108234;1253;59770;-81
2023/06/14 03:22:14;;;;;;;;;;;;;;;16.38;70.08;100436.30;108175;1254;73923;-81
2023/06/14 03:24:42;;;;;;;;;;;;;;;16.42;69.97;100431.98;108166;1254;72537;-81
2023/06/14 03:27:12;;;;;;;;;;;;;;;16.48;69.91;100433.48;108213;1253;71477;-81
2023/06/14 03:29:41;;;;;;;;;;;;;;;16.56;69.68;100436.93;108089;1259;61807;-82
2023/06/14 03:32:08;;;;;;;;;;;;;;;16.66;69.59;100439.94;108212;1254;60425;-80
2023/06/14 03:34:41;;;;;;;;;;;;;;;16.72;69.47;100443.05;108241;1257;73835;-80
2023/06/14 03:37:10;;;;;;;;;;;;;;;16.81;69.33;100441.33;108166;1253;71626;-82
2023/06/14 03:39:38;;;;;;;;;;;;;;;16.89;69.21;100444.18;108230;1254;72548;-80
2023/06/14 03:42:06;;;;;;;;;;;;;;;16.96;69.04;100445.34;108296;1254;60551;-81
2023/06/14 03:44:35;;;;;;;;;;;;;;;17.03;68.94;100444.60;108359;1254;60299;-82
2023/06/14 03:47:01;;;;;;;;;;;;;;;17.11;68.66;100447.13;108200;1254;73806;-81
2023/06/14 03:49:28;;;;;;;;;;;;;;;17.20;68.60;100448.23;108178;1255;71478;-81
2023/06/14 03:51:55;;;;;;;;;;;;;;;17.30;68.36;100445.23;108162;1254;72539;-81
2023/06/14 03:54:23;;;;;;;;;;;;;;;17.42;68.09;100437.80;108223;1255;61781;-81
2023/06/14 03:56:54;;;;;;;;;;;;;;;17.51;67.60;100433.69;108185;1253;60523;-81
2023/06/14 03:59:21;;;;;;;;;;;;;;;17.60;67.22;100430.19;108256;1254;73535;-82
2023/06/14 04:01:48;;;;;;;;;;;;;;;17.68;67.08;100431.45;108174;1259;71191;-79
2023/06/14 04:04:19;;;;;;;;;;;;;;;17.76;66.59;100433.23;108130;1254;72444;-82
2023/06/14 04:06:48;;;;;;;;;;;;;;;17.79;66.18;100428.63;108084;1254;60847;-81
2023/06/14 04:09:15;;;;;;;;;;;;;;;17.83;65.83;100426.91;108096;1254;60264;-81
2023/06/14 04:11:42;;;;;;;;;;;;;;;17.91;65.79;100427.34;108288;1254;73869;-81
2023/06/14 04:14:08;;;;;;;;;;;;;;;18.04;65.75;100425.92;108261;1254;72429;-81
2023/06/14 04:16:35;;;;;;;;;;;;;;;18.17;65.47;100427.38;108227;1255;72661;-82
2023/06/14 04:19:03;;;;;;;;;;;;;;;18.29;65.16;100424.25;108106;1254;61655;-80
2023/06/14 04:21:29;;;;;;;;;;;;;;;18.36;64.56;100424.15;108280;1253;60698;-80
2023/06/14 04:24:01;;;;;;;;;;;;;;;18.44;64.15;100421.20;108073;1253;73673;-81
2023/06/14 04:26:29;;;;;;;;;;;;;;;18.53;63.95;100419.92;108200;1254;72626;-81
2023/06/14 04:29:01;;;;;;;;;;;;;;;18.64;63.47;100418.97;108094;1254;71452;-81
2023/06/14 04:31:33;;;;;;;;;;;;;;;18.71;63.29;100420.81;108244;1253;61894;-82
2023/06/14 04:34:01;;;;;;;;;;;;;;;18.81;62.87;100418.27;108143;1254;61118;-81
2023/06/14 04:36:28;;;;;;;;;;;;;;;18.88;62.28;100423.77;108336;1254;73534;-81
2023/06/14 04:38:55;;;;;;;;;;;;;;;18.90;62.01;100423.87;108200;1254;72527;-81
2023/06/14 04:41:30;;;;;;;;;;;;;;;18.91;61.89;100421.50;108348;1253;71738;-81
2023/06/14 04:44:01;;;;;;;;;;;;;;;18.95;61.98;100421.88;108214;1254;60447;-81
2023/06/14 04:46:31;;;;;;;;;;;;;;;19.01;62.00;100413.31;108314;1254;60318;-81
2023/06/14 04:49:01;;;;;;;;;;;;;;;19.07;61.81;100413.52;108362;1253;72580;-82
2023/06/14 04:51:33;;;;;;;;;;;;;;;19.12;61.38;100410.39;108246;1254;72715;-80
2023/06/14 04:54:01;;;;;;;;;;;;;;;19.15;60.84;100402.90;108052;1254;72644;-80
2023/06/14 04:56:29;;;;;;;;;;;;;;;19.19;60.67;100402.05;108132;1254;60430;-82
2023/06/14 04:58:56;;;;;;;;;;;;;;;19.25;60.57;100403.74;108204;1253;60945;-80
2023/06/14 05:01:24;;;;;;;;;;;;;;;19.35;60.53;100404.71;108222;1254;73992;-81
2023/06/14 05:03:52;;;;;;;;;;;;;;;19.49;60.39;100404.30;108193;1254;72578;-81
2023/06/14 05:06:19;;;;;;;;;;;;;;;19.64;60.47;100399.20;108272;1256;72731;-81
2023/06/14 05:08:47;;;;;;;;;;;;;;;19.78;59.79;100398.31;108278;1253;60875;-80
2023/06/14 05:11:14;;;;;;;;;;;;;;;19.91;59.04;100398.77;108103;1254;60440;-80
2023/06/14 05:13:41;;;;;;;;;;;;;;;20.01;57.98;100400.50;108284;1254;73989;-81
2023/06/14 05:16:11;;;;;;;;;;;;;;;20.09;57.76;100399.25;108037;1254;71187;-81
2023/06/14 05:18:38;;;;;;;;;;;;;;;20.20;56.96;100405.33;108259;1254;71340;-78
2023/06/14 05:21:05;;;;;;;;;;;;;;;20.32;56.63;100404.33;108202;1254;62600;-80
2023/06/14 05:23:32;;;;;;;;;;;;;;;20.43;56.24;100409.48;108355;1254;60313;-80
2023/06/14 05:25:59;;;;;;;;;;;;;;;20.51;55.79;100408.05;108248;1254;73658;-82
2023/06/14 05:28:27;;;;;;;;;;;;;;;20.56;55.46;100408.80;108286;1253;72700;-80
2023/06/14 05:30:54;;;;;;;;;;;;;;;20.63;55.21;100407.29;108270;1252;72699;-80
2023/06/14 05:33:21;;;;;;;;;;;;;;;20.71;55.08;100404.76;108252;1254;59289;-81
2023/06/14 05:35:48;;;;;;;;;;;;;;;20.84;54.89;100406.79;108284;1254;60284;-81
2023/06/14 05:38:14;;;;;;;;;;;;;;;20.97;54.95;100409.64;108253;1254;72913;-80
2023/06/14 05:40:41;;;;;;;;;;;;;;;21.12;54.69;100414.66;108307;1254;72807;-81
2023/06/14 05:43:08;;;;;;;;;;;;;;;21.22;54.13;100409.92;108245;1254;71084;-80
2023/06/14 05:45:35;;;;;;;;;;;;;;;21.34;53.97;100410.83;108209;1253;60348;-81
2023/06/14 05:48:02;;;;;;;;;;;;;;;21.46;53.62;100413.40;108283;1253;60284;-80
2023/06/14 05:50:29;;;;;;;;;;;;;;;21.56;52.78;100408.67;108213;1253;73910;-80
2023/06/14 05:52:56;;;;;;;;;;;;;;;21.59;52.51;100412.36;108327;1254;72722;-79
2023/06/14 05:55:23;;;;;;;;;;;;;;;21.65;51.93;100413.41;108302;1253;71101;-80
2023/06/14 05:57:50;;;;;;;;;;;;;;;21.70;51.66;100419.05;108242;1254;60405;-80
2023/06/14 06:00:17;;;;;;;;;;;;;;;21.77;51.37;100416.10;108241;1253;60983;-81
2023/06/14 06:02:45;;;;;;;;;;;;;;;21.86;51.29;100413.52;108280;1254;72612;-80
2023/06/14 06:05:12;;;;;;;;;;;;;;;21.91;50.46;100416.79;108281;1254;71461;-83
2023/06/14 06:07:40;;;;;;;;;;;;;;;21.92;50.40;100411.55;108371;1254;72297;-79
2023/06/14 06:10:07;;;;;;;;;;;;;;;21.93;50.37;100407.33;108355;1253;60424;-82
2023/06/14 06:12:34;;;;;;;;;;;;;;;21.97;50.12;100408.40;108253;1254;59356;-80
2023/06/14 06:15:02;;;;;;;;;;;;;;;22.05;50.05;100407.73;108307;1254;73693;-81
2023/06/14 06:17:30;;;;;;;;;;;;;;;22.15;49.84;100405.88;108402;1254;71495;-79
2023/06/14 06:20:13;;;;;;;;;;;;;;;22.22;49.31;100404.27;108387;1254;72490;-80
2023/06/14 06:22:39;;;;;;;;;;;;;;;22.27;49.44;100403.73;108175;1254;60530;-79
2023/06/14 06:25:07;;;;;;;;;;;;;;;22.36;48.99;100405.50;108105;1253;60298;-80
2023/06/14 06:27:34;;;;;;;;;;;;;;;22.45;48.84;100404.45;108153;1254;73763;-80
2023/06/14 06:30:00;;;;;;;;;;;;;;;22.52;48.45;100400.09;108246;1253;70609;-79
2023/06/14 06:32:28;;;;;;;;;;;;;;;22.60;48.29;100397.70;108162;1254;72499;-79
2023/06/14 06:34:54;;;;;;;;;;;;;;;22.70;48.43;100397.45;108089;1254;60332;-79
2023/06/14 06:37:21;;;;;;;;;;;;;;;22.81;48.25;100397.70;108128;1253;60433;-79
2023/06/14 06:39:48;;;;;;;;;;;;;;;22.90;48.06;100395.48;108179;1254;73932;-80
2023/06/14 06:42:15;;;;;;;;;;;;;;;22.98;48.05;100392.64;108189;1254;72493;-80
2023/06/14 06:44:42;;;;;;;;;;;;;;;23.04;47.35;100390.33;108203;1254;72764;-81
2023/06/14 06:47:11;;;;;;;;;;;;;;;23.08;47.28;100393.09;108277;1254;60329;-80
2023/06/14 06:49:38;;;;;;;;;;;;;;;23.14;47.19;100393.80;108368;1254;60346;-81
2023/06/14 06:52:05;;;;;;;;;;;;;;;23.20;46.91;100392.87;108333;1254;72359;-80
2023/06/14 06:54:33;;;;;;;;;;;;;;;23.26;46.88;100389.63;108338;1256;71264;-80
2023/06/14 06:57:01;;;;;;;;;;;;;;;23.35;47.02;100385.04;108317;1253;72526;-80
2023/06/14 06:59:28;;;;;;;;;;;;;;;23.50;46.77;100381.95;108333;1253;60485;-80
2023/06/14 07:01:55;;;;;;;;;;;;;;;23.65;46.54;100379.38;108279;1257;60190;-79
2023/06/14 07:04:22;;;;;;;;;;;;;;;23.78;46.42;100379.15;108327;1254;72598;-80
2023/06/14 07:06:49;;;;;;;;;;;;;;;23.89;46.14;100374.66;108342;1254;71446;-79
2023/06/14 07:09:16;;;;;;;;;;;;;;;23.95;45.69;100373.55;108563;1253;72765;-79
2023/06/14 07:11:43;;;;;;;;;;;;;;;24.00;45.89;100369.48;108311;1253;60395;-80
2023/06/14 07:14:10;;;;;;;;;;;;;;;24.13;45.67;100375.01;108226;1253;60389;-80
2023/06/14 07:16:37;;;;;;;;;;;;;;;24.19;45.46;100373.75;108751;1254;72796;-79
2023/06/14 07:19:05;;;;;;;;;;;;;;;24.21;45.22;100371.38;108318;1254;71355;-79
2023/06/14 07:21:33;;;;;;;;;;;;;;;24.24;44.98;100371.55;108276;1253;72541;-80
2023/06/14 07:24:01;;;;;;;;;;;;;;;24.30;45.20;100371.45;108319;1253;60326;-80
2023/06/14 07:26:28;;;;;;;;;;;;;;;24.39;45.28;100367.23;108400;1254;60411;-80
2023/06/14 07:28:55;;;;;;;;;;;;;;;24.50;44.93;100369.37;108611;1253;72576;-80
2023/06/14 07:31:22;;;;;;;;;;;;;;;24.61;44.92;100370.00;108589;1254;71429;-80
2023/06/14 07:33:49;;;;;;;;;;;;;;;24.72;44.55;100377.02;108642;1254;71437;-80
2023/06/14 07:36:17;;;;;;;;;;;;;;;24.80;44.18;100375.10;108474;1254;60533;-80
2023/06/14 07:38:44;;;;;;;;;;;;;;;24.93;44.54;100372.63;108313;1254;236422;-79
2023/06/14 07:41:11;;;;;;;;;;;;;;;25.05;44.16;100376.25;108317;1254;72465;-79
2023/06/14 07:43:38;;;;;;;;;;;;;;;25.10;43.88;100373.05;108426;1254;71733;-79
2023/06/14 07:46:05;;;;;;;;;;;;;;;25.11;44.01;100376.70;108418;1253;71040;-80
2023/06/14 07:48:35;;;;;;;;;;;;;;;25.18;44.16;100373.18;108218;1253;60358;-79
2023/06/14 07:51:02;;;;;;;;;;;;;;;25.27;44.09;100373.58;108230;1257;59379;-81
2023/06/14 07:53:30;;;;;;;;;;;;;;;25.39;44.04;100372.33;108578;1253;73569;-80
2023/06/14 07:55:57;;;;;;;;;;;;;;;25.51;43.62;100371.46;108506;1253;71535;-80
2023/06/14 07:58:24;;;;;;;;;;;;;;;25.62;42.91;100374.00;108433;1253;72636;-80
2023/06/14 08:00:51;;;;;;;;;;;;;;;25.65;42.74;100373.52;108425;1253;60411;-81
2023/06/14 08:03:18;;;;;;;;;;;;;;;25.68;42.95;100370.51;108531;1254;60438;-81
2023/06/14 08:05:45;;;;;;;;;;;;;;;25.82;43.25;100372.58;108458;1253;73842;-80
2023/06/14 08:08:12;;;;;;;;;;;;;;;25.94;42.70;100372.73;108338;1254;71783;-80
2023/06/14 08:10:39;;;;;;;;;;;;;;;26.03;42.49;100373.80;108338;1254;72465;-80
2023/06/14 08:13:06;;;;;;;;;;;;;;;26.10;42.43;100371.64;108278;1254;60430;-80
2023/06/14 08:15:34;;;;;;;;;;;;;;;26.16;42.36;100368.53;108323;1253;60616;-81
2023/06/14 08:18:01;;;;;;;;;;;;;;;26.23;41.87;100365.05;108320;1253;72479;-81
2023/06/14 08:20:30;;;;;;;;;;;;;;;26.29;41.63;100364.21;108408;1254;71622;-80
2023/06/14 08:22:58;;;;;;;;;;;;;;;26.26;41.51;100366.89;108340;1253;71473;-79
2023/06/14 08:25:24;;;;;;;;;;;;;;;26.29;42.06;100365.45;108364;1254;60127;-80
2023/06/14 08:27:51;;;;;;;;;;;;;;;26.39;42.05;100366.30;108415;1256;59040;-80
2023/06/14 08:30:18;;;;;;;;;;;;;;;26.52;41.22;100365.02;108391;1254;73858;-81
2023/06/14 08:32:46;;;;;;;;;;;;;;;26.53;40.44;100363.95;108388;1254;73237;-79
2023/06/14 08:35:19;;;;;;;;;;;;;;;26.51;40.54;100364.70;108355;1254;71176;-80
2023/06/14 08:37:47;;;;;;;;;;;;;;;26.52;41.13;100365.35;108351;1254;60434;-79
2023/06/14 08:40:20;;;;;;;;;;;;;;;26.57;41.01;100365.26;108342;1252;60338;-80
2023/06/14 08:42:51;;;;;;;;;;;;;;;26.61;41.06;100362.81;108374;1253;72355;-84
2023/06/14 08:45:19;;;;;;;;;;;;;;;26.67;40.78;100365.31;108321;1254;72419;-80
2023/06/14 08:47:51;;;;;;;;;;;;;;;26.74;40.63;100364.32;108292;1252;71093;-81
2023/06/14 08:50:22;;;;;;;;;;;;;;;26.86;40.93;100363.54;108290;1253;60226;-81
2023/06/14 08:52:57;;;;;;;;;;;;;;;26.91;40.09;100362.49;108109;1254;59877;-79
2023/06/14 08:55:30;;;;;;;;;;;;;;;26.85;40.20;100365.49;108269;1253;73702;-81
2023/06/14 08:58:01;;;;;;;;;;;;;;;26.80;40.12;100363.61;108286;1253;72795;-79
2023/06/14 09:00:28;;;;;;;;;;;;;;;26.77;40.12;100359.90;108227;1254;72572;-81
2023/06/14 09:02:58;;;;;;;;;;;;;;;26.80;40.38;100359.63;108226;1254;60887;-79
2023/06/14 09:05:26;;;;;;;;;;;;;;;26.91;40.74;100354.76;108262;1253;60431;-81
2023/06/14 09:07:55;;;;;;;;;;;;;;;27.05;40.41;100355.86;108209;1253;73620;-82
2023/06/14 09:10:22;;;;;;;;;;;;;;;27.11;40.06;100353.20;108267;1254;72748;-80
2023/06/14 09:12:49;;;;;;;;;;;;;;;27.08;39.77;100355.90;108125;1254;72652;-80
2023/06/14 09:15:16;;;;;;;;;;;;;;;27.08;39.88;100352.21;108272;1253;60434;-80
2023/06/14 09:17:43;;;;;;;;;;;;;;;27.13;40.34;100346.17;108254;1252;61006;-79
2023/06/14 09:20:10;;;;;;;;;;;;;;;27.21;40.29;100347.77;108245;1254;73644;-81
2023/06/14 09:22:38;;;;;;;;;;;;;;;27.25;39.33;100347.98;108289;1253;72821;-81
2023/06/14 09:25:05;;;;;;;;;;;;;;;27.21;39.57;100347.84;108276;1253;72471;-80
2023/06/14 09:27:32;;;;;;;;;;;;;;;27.26;39.89;100344.60;108239;1254;59368;-80
2023/06/14 09:30:03;;;;;;;;;;;;;;;27.32;39.97;100344.84;108264;1253;61028;-82
2023/06/14 09:32:31;;;;;;;;;;;;;;;27.33;40.14;100344.06;108270;1254;75300;-79
2023/06/14 09:35:01;;;;;;;;;;;;;;;27.38;39.89;100339.79;108282;1253;72467;-80
2023/06/14 09:37:29;;;;;;;;;;;;;;;27.41;38.77;100338.34;108309;1254;72785;-80
2023/06/14 09:39:56;;;;;;;;;;;;;;;27.43;39.18;100329.52;108296;1253;60541;-81
2023/06/14 09:42:27;;;;;;;;;;;;;;;27.52;39.70;100332.19;108306;1253;60339;-81
2023/06/14 09:44:54;;;;;;;;;;;;;;;27.74;39.38;100335.21;108359;1253;72925;-81
2023/06/14 09:47:22;;;;;;;;;;;;;;;27.95;39.09;100337.91;108279;1253;64024;-80
2023/06/14 09:49:49;;;;;;;;;;;;;;;28.17;39.11;100340.83;108224;1253;72632;-79
2023/06/14 09:52:17;;;;;;;;;;;;;;;28.30;38.97;100341.45;108294;1254;60423;-80
2023/06/14 09:54:47;;;;;;;;;;;;;;;28.38;38.78;100340.49;108321;1253;60447;-80
2023/06/14 09:57:15;;;;;;;;;;;;;;;28.47;38.51;100341.13;108288;1254;73561;-80
2023/06/14 09:59:43;;;;;;;;;;;;;;;28.57;38.88;100343.45;108304;1254;71238;-80
2023/06/14 10:02:12;;;;;;;;;;;;;;;28.67;38.75;100339.58;108310;1256;62634;-81
2023/06/14 10:04:40;;;;;;;;;;;;;;;28.68;37.94;100336.52;108210;1256;59306;-80
2023/06/14 10:07:07;;;;;;;;;;;;;;;28.51;37.79;100337.45;108279;1252;60447;-79
2023/06/14 10:09:36;;;;;;;;;;;;;;;28.28;38.13;100335.49;108091;1253;64002;-79
2023/06/14 10:12:03;;;;;;;;;;;;;;;28.05;38.30;100337.91;108242;1253;72395;-80
2023/06/14 10:14:31;;;;;;;;;;;;;;;27.90;38.49;100338.66;108283;1253;63857;-79
2023/06/14 10:17:05;;;;;;;;;;;;;;;27.78;38.88;100339.41;108309;1253;60466;-79
2023/06/14 10:19:42;;;;;;;;;;;;;;;27.69;39.18;100341.11;108097;1253;60341;-81
2023/06/14 10:22:14;;;;;;;;;;;;;;;27.69;38.91;100341.66;108171;1253;73913;-81
2023/06/14 10:24:42;;;;;;;;;;;;;;;27.68;39.10;100338.83;108203;1254;72763;-81
2023/06/14 10:27:11;;;;;;;;;;;;;;;27.64;39.12;100335.73;108198;1254;70488;-80
2023/06/14 10:29:54;;;;;;;;;;;;;;;27.61;39.58;100336.73;108201;1254;60567;-79
2023/06/14 10:32:23;;;;;;;;;;;;;;;27.65;39.81;100330.98;108333;1253;60527;-81
2023/06/14 10:34:54;;;;;;;;;;;;;;;27.67;40.15;100332.70;108224;1256;73668;-80
2023/06/14 10:37:21;;;;;;;;;;;;;;;27.69;39.77;100332.56;108183;1253;73045;-80
2023/06/14 10:39:47;;;;;;;;;;;;;;;27.69;39.51;100332.96;108151;1254;72910;-78
2023/06/14 10:42:14;;;;;;;;;;;;;;;27.64;39.14;100332.77;108284;1252;60427;-80
2023/06/14 10:44:42;;;;;;;;;;;;;;;27.58;39.78;100335.61;108244;1254;60399;-84
2023/06/14 10:47:09;;;;;;;;;;;;;;;27.59;39.75;100332.79;108060;1253;72661;-80
2023/06/14 10:49:40;;;;;;;;;;;;;;;27.62;39.05;100334.63;108203;1253;72666;-81
2023/06/14 10:52:16;;;;;;;;;;;;;;;27.62;39.05;100334.95;108314;1254;72451;-80
2023/06/14 10:54:55;;;;;;;;;;;;;;;27.65;39.20;100335.20;108261;1254;59569;-80
2023/06/14 10:57:22;;;;;;;;;;;;;;;27.71;39.68;100331.96;108259;1254;60414;-79
2023/06/14 10:59:49;;;;;;;;;;;;;;;27.78;39.60;100335.02;108150;1254;73867;-80
2023/06/14 11:02:19;;;;;;;;;;;;;;;27.88;39.48;100336.21;108281;1253;72826;-80
2023/06/14 11:04:50;;;;;;;;;;;;;;;27.95;39.18;100336.66;108256;1252;71406;-79
2023/06/14 11:07:32;;;;;;;;;;;;;;;27.96;39.01;100335.33;108269;1253;61674;-79
2023/06/14 11:10:18;;;;;;;;;;;;;;;27.91;38.65;100336.16;108202;1253;60389;-79
2023/06/14 11:12:45;;;;;;;;;;;;;;;27.85;38.57;100332.34;108230;1253;73765;-79
2023/06/14 11:15:13;;;;;;;;;;;;;;;27.88;38.55;100330.10;108257;1253;63951;-80
2023/06/14 11:17:50;;;;;;;;;;;;;;;27.96;37.73;100328.42;108107;1253;72702;-79
2023/06/14 11:20:18;;;;;;;;;;;;;;;28.02;37.72;100329.48;108205;1253;59220;-80
2023/06/14 11:22:49;;;;;;;;;;;;;;;28.11;37.74;100322.58;108281;1254;60444;-80
2023/06/14 11:25:16;;;;;;;;;;;;;;;28.22;38.04;100326.11;108227;1254;73753;-82
2023/06/14 11:27:43;;;;;;;;;;;;;;;28.33;37.75;100325.78;108180;1253;72399;-79
2023/06/14 11:30:11;;;;;;;;;;;;;;;28.47;37.36;100329.49;108214;1253;63838;-79
2023/06/14 11:32:38;;;;;;;;;;;;;;;28.61;37.21;100327.69;108188;1253;60331;-79
2023/06/14 11:35:06;;;;;;;;;;;;;;;28.73;37.26;100323.73;108277;1254;59225;-80
2023/06/14 11:37:33;;;;;;;;;;;;;;;28.77;37.13;100326.27;108319;1253;65204;-80
2023/06/14 11:40:00;;;;;;;;;;;;;;;28.76;36.90;100330.59;108242;1254;72473;-79
2023/06/14 11:42:28;;;;;;;;;;;;;;;28.79;36.71;100332.71;108238;1253;72784;-80
2023/06/14 11:44:55;;;;;;;;;;;;;;;28.80;36.42;100330.83;108255;1253;60465;-81
2023/06/14 11:47:38;;;;;;;;;;;;;;;28.77;37.22;100328.55;108237;1253;60511;-80
2023/06/14 11:50:06;;;;;;;;;;;;;;;28.85;36.99;100329.38;108265;1253;73739;-80
2023/06/14 11:52:33;;;;;;;;;;;;;;;28.94;36.75;100324.92;108199;1254;62822;-79
2023/06/14 11:55:01;;;;;;;;;;;;;;;29.07;37.13;100328.52;108073;1253;64060;-79
2023/06/14 11:57:28;;;;;;;;;;;;;;;29.21;36.44;100325.90;108270;1254;60824;-78
2023/06/14 11:59:55;;;;;;;;;;;;;;;29.32;35.88;100326.46;108248;1254;60296;-80
2023/06/14 12:02:22;;;;;;;;;;;;;;;29.43;35.54;100320.52;108230;1252;66256;-80
2023/06/14 12:04:52;;;;;;;;;;;;;;;29.57;35.89;100318.40;108238;1254;62708;-79
2023/06/14 12:07:20;;;;;;;;;;;;;;;29.75;35.00;100320.72;108243;1253;72530;-80
2023/06/14 12:09:53;;;;;;;;;;;;;;;29.74;34.89;100318.60;108126;1253;60428;-79
2023/06/14 12:12:25;;;;;;;;;;;;;;;29.68;35.12;100321.04;108374;1256;60315;-80
2023/06/14 12:14:52;;;;;;;;;;;;;;;29.61;35.03;100320.24;108261;1253;65239;-81
2023/06/14 12:17:19;;;;;;;;;;;;;;;29.47;35.07;100323.04;108222;1253;64046;-79
2023/06/14 12:19:46;;;;;;;;;;;;;;;29.31;35.22;100323.80;108244;1256;64506;-79
2023/06/14 12:22:14;;;;;;;;;;;;;;;29.23;35.49;100322.30;108291;1254;60888;-78
2023/06/14 12:24:44;;;;;;;;;;;;;;;29.24;35.41;100319.23;108238;1253;60426;-80
2023/06/14 12:27:15;;;;;;;;;;;;;;;29.22;35.35;100322.60;108304;1254;66289;-80
2023/06/14 12:29:45;;;;;;;;;;;;;;;29.18;35.24;100325.34;108323;1254;64180;-79
2023/06/14 12:32:17;;;;;;;;;;;;;;;29.18;35.03;100326.83;108210;1252;64364;-80